createdAt,value
2023-10-29T00:00:25.421Z,988.56
2023-10-29T00:01:25.519Z,988.57
2023-10-29T00:02:25.476Z,988.53
2023-10-29T00:03:25.568Z,988.50
2023-10-29T00:04:25.381Z,988.53
2023-10-29T00:05:25.397Z,988.48
2023-10-29T00:06:25.343Z,988.48
2023-10-29T00:07:25.353Z,988.49
2023-10-29T00:08:25.328Z,988.45
2023-10-29T00:09:25.364Z,988.41
2023-10-29T00:10:25.326Z,988.37
2023-10-29T00:11:25.329Z,988.38
2023-10-29T00:12:25.270Z,988.34
2023-10-29T00:13:25.308Z,988.37
2023-10-29T00:14:25.266Z,988.37
2023-10-29T00:15:25.239Z,988.37
2023-10-29T00:16:25.246Z,988.34
2023-10-29T00:17:25.265Z,988.32
2023-10-29T00:18:25.310Z,988.32
2023-10-29T00:19:25.377Z,988.29
2023-10-29T00:20:25.222Z,988.31
2023-10-29T00:21:25.184Z,988.27
2023-10-29T00:22:25.192Z,988.26
2023-10-29T00:23:25.198Z,988.23
2023-10-29T00:24:25.160Z,988.25
2023-10-29T00:25:25.182Z,988.27
2023-10-29T00:26:25.149Z,988.23
2023-10-29T00:27:25.142Z,988.26
2023-10-29T00:28:25.174Z,988.28
2023-10-29T00:29:25.169Z,988.29
2023-10-29T00:30:25.130Z,988.29
2023-10-29T00:31:25.095Z,988.26
2023-10-29T00:32:25.139Z,988.23
2023-10-29T00:33:25.142Z,988.20
2023-10-29T00:34:25.051Z,988.20
2023-10-29T00:35:25.084Z,988.17
2023-10-29T00:36:25.073Z,988.15
2023-10-29T00:37:25.003Z,988.14
2023-10-29T00:38:25.043Z,988.12
2023-10-29T00:39:24.988Z,988.16
2023-10-29T00:40:24.988Z,988.17
2023-10-29T00:41:24.979Z,988.17
2023-10-29T00:42:25.000Z,988.15
2023-10-29T00:43:24.947Z,988.13
2023-10-29T00:44:25.004Z,988.13
2023-10-29T00:45:24.942Z,988.13
2023-10-29T00:46:24.929Z,988.15
2023-10-29T00:47:24.988Z,988.12
2023-10-29T00:48:24.953Z,988.10
2023-10-29T00:49:24.880Z,988.12
2023-10-29T00:50:24.949Z,988.14
2023-10-29T00:51:24.865Z,988.16
2023-10-29T00:52:24.863Z,988.18
2023-10-29T00:53:24.869Z,988.21
2023-10-29T00:54:24.839Z,988.19
2023-10-29T00:55:24.811Z,988.19
2023-10-29T00:56:24.874Z,988.18
2023-10-29T00:57:24.797Z,988.16
2023-10-29T00:58:24.827Z,988.17
2023-10-29T00:59:24.781Z,988.15
2023-10-29T01:00:24.803Z,988.13
2023-10-29T01:01:24.768Z,988.13
2023-10-29T01:02:24.811Z,988.13
2023-10-29T01:03:24.896Z,988.22
2023-10-29T01:04:24.734Z,988.33
2023-10-29T01:05:24.991Z,988.36
2023-10-29T01:06:24.797Z,988.38
2023-10-29T01:07:24.680Z,988.36
2023-10-29T01:08:24.760Z,988.34
2023-10-29T01:09:24.661Z,988.31
2023-10-29T01:10:24.680Z,988.30
2023-10-29T01:11:24.715Z,988.28
2023-10-29T01:12:24.651Z,988.29
2023-10-29T01:13:24.625Z,988.33
2023-10-29T01:14:24.639Z,988.39
2023-10-29T01:15:24.599Z,988.39
2023-10-29T01:17:28.537Z,988.40
2023-10-29T01:18:29.507Z,988.37
2023-10-29T01:19:29.436Z,988.30
2023-10-29T01:20:30.141Z,988.26
2023-10-29T01:21:29.436Z,988.25
2023-10-29T01:22:29.433Z,988.24
2023-10-29T01:23:29.468Z,988.19
2023-10-29T01:24:29.367Z,988.24
2023-10-29T01:25:29.382Z,988.24
2023-10-29T01:26:29.368Z,988.26
2023-10-29T01:27:29.355Z,988.24
2023-10-29T01:28:29.392Z,988.20
2023-10-29T01:29:29.397Z,988.20
2023-10-29T01:30:29.306Z,988.18
2023-10-29T01:31:29.341Z,988.17
2023-10-29T01:32:29.347Z,988.15
2023-10-29T01:33:29.341Z,988.15
2023-10-29T01:34:29.309Z,988.18
2023-10-29T01:35:29.410Z,988.19
2023-10-29T01:36:29.259Z,988.16
2023-10-29T01:37:29.271Z,988.17
2023-10-29T01:38:29.258Z,988.15
2023-10-29T01:39:29.223Z,988.11
2023-10-29T01:40:29.207Z,988.08
2023-10-29T01:41:29.287Z,988.07
2023-10-29T01:42:29.173Z,988.05
2023-10-29T01:43:29.196Z,988.07
2023-10-29T01:44:29.199Z,988.09
2023-10-29T01:45:29.222Z,988.14
2023-10-29T01:46:29.126Z,988.08
2023-10-29T01:47:29.238Z,988.07
2023-10-29T01:48:29.160Z,988.03
2023-10-29T01:49:29.114Z,987.99
2023-10-29T01:50:29.095Z,987.90
2023-10-29T01:51:29.100Z,987.77
2023-10-29T01:52:29.097Z,987.72
2023-10-29T01:53:29.106Z,987.63
2023-10-29T01:54:29.058Z,987.57
2023-10-29T01:55:29.129Z,987.60
2023-10-29T01:56:29.051Z,987.63
2023-10-29T01:57:29.054Z,987.58
2023-10-29T01:58:29.004Z,987.56
2023-10-29T01:59:29.044Z,987.56
2023-10-29T02:00:28.985Z,987.53
2023-10-29T02:01:29.101Z,987.57
2023-10-29T02:02:29.006Z,987.51
2023-10-29T02:03:29.141Z,987.49
2023-10-29T02:04:28.954Z,987.49
2023-10-29T02:05:29.003Z,987.50
2023-10-29T02:06:28.920Z,987.49
2023-10-29T02:07:28.945Z,987.47
2023-10-29T02:08:28.904Z,987.43
2023-10-29T02:09:28.901Z,987.44
2023-10-29T02:10:28.880Z,987.46
2023-10-29T02:11:28.886Z,987.49
2023-10-29T02:12:28.856Z,987.50
2023-10-29T02:13:28.891Z,987.46
2023-10-29T02:14:28.887Z,987.39
2023-10-29T02:15:28.834Z,987.35
2023-10-29T02:16:28.810Z,987.30
2023-10-29T02:17:29.024Z,987.27
2023-10-29T02:18:28.875Z,987.23
2023-10-29T02:19:28.808Z,987.22
2023-10-29T02:20:28.803Z,987.20
2023-10-29T02:21:28.776Z,987.17
2023-10-29T02:22:28.747Z,987.12
2023-10-29T02:23:28.774Z,987.07
2023-10-29T02:24:28.728Z,987.00
2023-10-29T02:25:28.794Z,987.00
2023-10-29T02:26:28.714Z,986.93
2023-10-29T02:27:28.713Z,986.90
2023-10-29T02:28:28.693Z,986.85
2023-10-29T02:29:28.729Z,986.83
2023-10-29T07:00:59.970Z,987.59
2023-10-29T07:02:00.954Z,987.56
2023-10-29T07:03:01.106Z,987.62
2023-10-29T07:04:01.126Z,987.67
2023-10-29T07:05:00.906Z,987.67
2023-10-29T07:06:00.952Z,987.71
2023-10-29T07:07:00.892Z,987.66
2023-10-29T07:08:00.905Z,987.56
2023-10-29T07:09:00.901Z,987.60
2023-10-29T07:10:00.930Z,987.58
2023-10-29T07:11:00.848Z,987.57
2023-10-29T07:12:00.875Z,987.58
2023-10-29T07:13:00.827Z,987.63
2023-10-29T07:14:00.844Z,987.72
2023-10-29T07:15:00.847Z,987.70
2023-10-29T07:16:00.986Z,987.77
2023-10-29T07:17:00.804Z,987.83
2023-10-29T07:18:00.904Z,987.79
2023-10-29T07:19:00.783Z,987.75
2023-10-29T07:20:00.773Z,987.73
2023-10-29T07:21:00.796Z,987.73
2023-10-29T07:22:00.781Z,987.72
2023-10-29T07:23:00.713Z,987.76
2023-10-29T07:24:00.737Z,987.80
2023-10-29T07:25:00.701Z,987.76
2023-10-29T07:26:00.701Z,987.76
2023-10-29T07:27:00.718Z,987.71
2023-10-29T07:28:00.703Z,987.68
2023-10-29T07:29:00.648Z,987.65
2023-10-29T07:30:00.745Z,987.62
2023-10-29T07:31:00.620Z,987.60
2023-10-29T07:32:00.675Z,987.57
2023-10-29T07:33:00.681Z,987.58
2023-10-29T07:34:00.647Z,987.61
2023-10-29T07:35:00.590Z,987.63
2023-10-29T07:36:00.614Z,987.64
2023-10-29T07:37:00.573Z,987.71
2023-10-29T07:38:00.566Z,987.70
2023-10-29T07:39:00.555Z,987.68
2023-10-29T07:40:00.561Z,987.61
2023-10-29T07:41:00.521Z,987.55
2023-10-29T07:42:00.557Z,987.51
2023-10-29T07:43:00.512Z,987.48
2023-10-29T07:44:00.507Z,987.43
2023-10-29T07:45:00.588Z,987.39
2023-10-29T07:46:00.503Z,987.39
2023-10-29T07:47:00.449Z,987.43
2023-10-29T07:48:00.558Z,987.48
2023-10-29T07:49:00.442Z,987.53
2023-10-29T07:50:00.438Z,987.59
2023-10-29T07:51:00.486Z,987.55
2023-10-29T07:52:00.410Z,987.62
2023-10-29T07:53:00.396Z,987.73
2023-10-29T07:54:01.352Z,987.76
2023-10-29T07:55:00.369Z,987.79
2023-10-29T07:56:00.368Z,987.70
2023-10-29T07:57:00.390Z,987.61
2023-10-29T07:58:00.350Z,987.56
2023-10-29T07:59:00.334Z,987.57
2023-10-29T08:00:00.435Z,987.61
2023-10-29T08:01:00.322Z,987.64
2023-10-29T08:02:00.306Z,987.65
2023-10-29T08:03:00.422Z,987.73
2023-10-29T08:04:00.382Z,987.73
2023-10-29T08:05:00.254Z,987.70
2023-10-29T08:06:00.302Z,987.69
2023-10-29T08:07:00.249Z,987.60
2023-10-29T08:08:00.259Z,987.54
2023-10-29T08:09:00.295Z,987.52
2023-10-29T08:10:00.226Z,987.45
2023-10-29T08:11:00.198Z,987.42
2023-10-29T08:12:00.269Z,987.37
2023-10-29T08:13:00.169Z,987.31
2023-10-29T08:14:00.217Z,987.24
2023-10-29T08:15:00.308Z,987.19
2023-10-29T08:16:00.267Z,987.15
2023-10-29T08:17:00.124Z,987.13
2023-10-29T08:18:00.205Z,987.08
2023-10-29T08:19:00.106Z,987.09
2023-10-29T08:20:00.242Z,987.22
2023-10-29T08:21:00.106Z,987.36
2023-10-29T08:22:00.099Z,987.39
2023-10-29T08:23:00.059Z,987.42
2023-10-29T08:24:00.130Z,987.43
2023-10-29T08:25:00.038Z,987.38
2023-10-29T08:26:00.086Z,987.43
2023-10-29T08:27:00.064Z,987.47
2023-10-29T08:28:00.043Z,987.52
2023-10-29T08:28:59.993Z,987.57
2023-10-29T08:30:00.030Z,987.56
2023-10-29T08:30:59.976Z,987.63
2023-10-29T08:32:00.002Z,987.59
2023-10-29T08:33:00.026Z,987.59
2023-10-29T08:33:59.958Z,987.53
2023-10-29T08:34:59.955Z,987.54
2023-10-29T08:35:59.934Z,987.50
2023-10-29T08:36:59.922Z,987.61
2023-10-29T08:37:59.915Z,987.74
2023-10-29T08:38:59.984Z,987.73
2023-10-29T08:39:59.883Z,987.79
2023-10-29T08:40:59.865Z,987.82
2023-10-29T08:41:59.940Z,987.85
2023-10-29T08:42:59.881Z,987.84
2023-10-29T08:43:59.844Z,987.87
2023-10-29T08:44:59.939Z,987.88
2023-10-29T08:45:59.946Z,987.93
2023-10-29T08:46:59.821Z,987.94
2023-10-29T08:47:59.891Z,987.98
2023-10-29T08:48:59.816Z,988.03
2023-10-29T08:49:59.783Z,988.06
2023-10-29T08:50:59.804Z,988.06
2023-10-29T08:51:59.766Z,988.06
2023-10-29T08:52:59.736Z,987.99
2023-10-29T08:53:59.773Z,987.99
2023-10-29T08:54:59.741Z,987.99
2023-10-29T08:55:59.713Z,988.03
2023-10-29T08:56:59.708Z,988.09
2023-10-29T08:57:59.690Z,988.15
2023-10-29T08:58:59.661Z,988.22
2023-10-29T08:59:59.689Z,988.23
2023-10-29T09:00:59.703Z,988.30
2023-10-29T09:01:59.644Z,988.32
2023-10-29T09:02:59.683Z,988.39
2023-10-29T09:03:59.735Z,988.46
2023-10-29T09:04:59.604Z,988.53
2023-10-29T09:05:59.655Z,988.65
2023-10-29T09:06:59.594Z,988.66
2023-10-29T09:07:59.585Z,988.72
2023-10-29T09:08:59.597Z,988.73
2023-10-29T09:09:59.569Z,988.72
2023-10-29T09:10:59.539Z,988.73
2023-10-29T09:11:59.616Z,988.72
2023-10-29T09:12:59.520Z,988.76
2023-10-29T09:13:59.538Z,988.74
2023-10-29T09:14:59.517Z,988.77
2023-10-29T09:15:59.531Z,988.79
2023-10-29T09:16:59.498Z,988.88
2023-10-29T09:17:59.671Z,988.84
2023-10-29T09:18:59.445Z,988.81
2023-10-29T09:19:59.454Z,988.76
2023-10-29T09:20:59.463Z,988.73
2023-10-29T09:21:59.428Z,988.77
2023-10-29T09:22:59.410Z,988.76
2023-10-29T09:23:59.494Z,988.79
2023-10-29T09:24:59.377Z,988.75
2023-10-29T09:25:59.401Z,988.69
2023-10-29T09:26:59.369Z,988.64
2023-10-29T09:27:59.359Z,988.63
2023-10-29T09:28:59.342Z,988.58
2023-10-29T09:29:59.454Z,988.59
2023-10-29T09:30:59.317Z,988.56
2023-10-29T09:31:59.319Z,988.56
2023-10-29T09:32:59.333Z,988.56
2023-10-29T09:33:59.298Z,988.53
2023-10-29T09:34:59.273Z,988.54
2023-10-29T09:35:59.310Z,988.60
2023-10-29T09:36:59.252Z,988.61
2023-10-29T09:37:59.265Z,988.62
2023-10-29T09:38:59.245Z,988.64
2023-10-29T09:39:59.232Z,988.62
2023-10-29T09:40:59.264Z,988.54
2023-10-29T09:41:59.227Z,988.52
2023-10-29T09:42:59.191Z,988.52
2023-10-29T09:43:59.198Z,988.52
2023-10-29T09:44:59.241Z,988.59
2023-10-29T09:45:59.177Z,988.60
2023-10-29T09:46:59.170Z,988.58
2023-10-29T09:47:59.229Z,988.56
2023-10-29T09:48:59.142Z,988.51
2023-10-29T09:49:59.205Z,988.54
2023-10-29T09:50:59.146Z,988.55
2023-10-29T09:51:59.130Z,988.49
2023-10-29T09:52:59.161Z,988.47
2023-10-29T09:53:59.539Z,988.34
2023-10-29T09:54:59.184Z,988.26
2023-10-29T09:55:59.057Z,988.30
2023-10-29T09:56:59.067Z,988.37
2023-10-29T09:57:59.064Z,988.45
2023-10-29T09:58:59.040Z,988.47
2023-10-29T09:59:59.047Z,988.51
2023-10-29T10:00:59.008Z,988.57
2023-10-29T10:01:59.244Z,988.67
2023-10-29T10:02:59.157Z,988.66
2023-10-29T10:03:59.182Z,988.66
2023-10-29T10:04:58.947Z,988.64
2023-10-29T10:05:59.017Z,988.59
2023-10-29T10:06:58.935Z,988.59
2023-10-29T10:07:58.946Z,988.57
2023-10-29T10:08:58.993Z,988.51
2023-10-29T10:09:58.973Z,988.53
2023-10-29T10:10:58.880Z,988.53
2023-10-29T10:11:58.902Z,988.57
2023-10-29T10:12:58.858Z,988.57
2023-10-29T10:13:58.862Z,988.58
2023-10-29T10:14:58.867Z,988.49
2023-10-29T10:15:58.922Z,988.55
2023-10-29T10:16:58.812Z,988.52
2023-10-29T10:17:58.885Z,988.60
2023-10-29T10:18:58.795Z,988.72
2023-10-29T10:19:58.801Z,988.71
2023-10-29T10:20:58.799Z,988.76
2023-10-29T10:21:58.823Z,988.71
2023-10-29T10:22:58.762Z,988.65
2023-10-29T10:23:58.784Z,988.62
2023-10-29T10:24:58.740Z,988.59
2023-10-29T10:25:58.726Z,988.57
2023-10-29T10:26:58.749Z,988.46
2023-10-29T10:27:58.742Z,988.48
2023-10-29T10:28:58.683Z,988.50
2023-10-29T10:29:58.721Z,988.49
2023-10-29T10:30:58.665Z,988.52
2023-10-29T10:31:58.691Z,988.51
2023-10-29T10:32:58.716Z,988.54
2023-10-29T10:33:58.632Z,988.50
2023-10-29T10:34:58.664Z,988.51
2023-10-29T10:35:58.636Z,988.51
2023-10-29T10:36:58.615Z,988.51
2023-10-29T10:37:58.592Z,988.52
2023-10-29T10:38:58.631Z,988.53
2023-10-29T10:39:58.573Z,988.56
2023-10-29T10:40:58.580Z,988.61
2023-10-29T10:42:00.583Z,988.58
2023-10-29T10:42:58.559Z,988.56
2023-10-29T10:43:58.522Z,988.55
2023-10-29T10:44:58.596Z,988.57
2023-10-29T10:45:58.530Z,988.58
2023-10-29T10:46:58.516Z,988.62
2023-10-29T10:47:58.526Z,988.62
2023-10-29T10:48:58.486Z,988.66
2023-10-29T10:49:58.458Z,988.64
2023-10-29T10:50:58.534Z,988.66
2023-10-29T10:51:58.431Z,988.66
2023-10-29T10:52:58.445Z,988.63
2023-10-29T10:53:58.441Z,988.53
2023-10-29T10:54:58.420Z,988.45
2023-10-29T10:56:04.068Z,988.37
2023-10-29T10:56:58.463Z,988.31
2023-10-29T10:57:58.370Z,988.28
2023-10-29T10:58:58.381Z,988.34
2023-10-29T10:59:58.371Z,988.37
2023-10-29T11:00:58.357Z,988.32
2023-10-29T11:01:58.372Z,988.30
2023-10-29T11:02:58.581Z,988.27
2023-10-29T11:03:58.418Z,988.31
2023-10-29T11:04:58.379Z,988.38
2023-10-29T11:05:58.325Z,988.44
2023-10-29T11:06:58.288Z,988.52
2023-10-29T11:07:58.290Z,988.63
2023-10-29T11:08:58.281Z,988.66
2023-10-29T11:09:58.238Z,988.68
2023-10-29T11:10:58.489Z,988.63
2023-10-29T11:11:58.238Z,988.59
2023-10-29T11:12:58.220Z,988.53
2023-10-29T11:13:58.234Z,988.45
2023-10-29T11:14:58.219Z,988.40
2023-10-29T11:15:58.237Z,988.34
2023-10-29T11:16:58.270Z,988.29
2023-10-29T11:17:58.234Z,988.27
2023-10-29T11:19:00.023Z,988.28
2023-10-29T11:19:58.147Z,988.22
2023-10-29T11:24:53.936Z,988.43
2023-10-29T11:25:54.890Z,988.40
2023-10-29T11:26:54.905Z,988.41
2023-10-29T11:27:54.905Z,988.39
2023-10-29T11:28:54.919Z,988.39
2023-10-29T11:29:58.667Z,988.44
2023-10-29T11:30:54.826Z,988.48
2023-10-29T11:31:54.898Z,988.58
2023-10-29T11:32:54.831Z,988.56
2023-10-29T11:33:54.808Z,988.58
2023-10-29T11:34:54.782Z,988.56
2023-10-29T11:35:54.825Z,988.51
2023-10-29T11:36:54.777Z,988.40
2023-10-29T11:37:54.808Z,988.44
2023-10-29T11:38:54.753Z,988.45
2023-10-29T11:39:54.741Z,988.42
2023-10-29T11:40:54.766Z,988.44
2023-10-29T11:41:54.746Z,988.45
2023-10-29T11:42:54.703Z,988.49
2023-10-29T11:43:54.712Z,988.48
2023-10-29T11:44:54.707Z,988.52
2023-10-29T11:45:54.697Z,988.58
2023-10-29T11:46:54.659Z,988.55
2023-10-29T11:47:54.731Z,988.54
2023-10-29T11:48:54.636Z,988.56
2023-10-29T11:49:54.627Z,988.60
2023-10-29T11:50:54.623Z,988.61
2023-10-29T11:51:54.629Z,988.65
2023-10-29T11:52:54.589Z,988.63
2023-10-29T11:53:54.686Z,988.54
2023-10-29T11:54:54.566Z,988.57
2023-10-29T11:55:54.575Z,988.63
2023-10-29T11:56:54.572Z,988.67
2023-10-29T11:57:54.565Z,988.69
2023-10-29T11:58:54.537Z,988.74
2023-10-29T11:59:54.642Z,988.74
2023-10-29T12:00:54.498Z,988.76
2023-10-29T12:01:54.502Z,988.78
2023-10-29T12:02:54.583Z,988.77
2023-10-29T12:03:54.618Z,988.73
2023-10-29T12:04:54.512Z,988.57
2023-10-29T12:05:54.676Z,988.46
2023-10-29T12:06:54.434Z,988.42
2023-10-29T12:07:54.446Z,988.40
2023-10-29T12:08:54.440Z,988.37
2023-10-29T12:09:54.416Z,988.33
2023-10-29T12:10:54.416Z,988.34
2023-10-29T12:11:54.477Z,988.32
2023-10-29T12:12:54.385Z,988.35
2023-10-29T12:13:54.376Z,988.35
2023-10-29T12:14:54.378Z,988.35
2023-10-29T12:15:54.353Z,988.37
2023-10-29T12:16:54.390Z,988.39
2023-10-29T12:17:54.596Z,988.36
2023-10-29T12:18:56.183Z,988.36
2023-10-29T12:19:54.316Z,988.34
2023-10-29T12:20:54.350Z,988.32
2023-10-29T12:21:54.321Z,988.30
2023-10-29T12:22:54.272Z,988.24
2023-10-29T12:23:54.296Z,988.21
2023-10-29T12:24:54.272Z,988.17
2023-10-29T12:25:54.263Z,988.18
2023-10-29T12:26:54.235Z,988.21
2023-10-29T12:27:54.224Z,988.22
2023-10-29T12:28:54.203Z,988.23
2023-10-29T12:29:54.306Z,988.26
2023-10-29T12:30:54.207Z,988.29
2023-10-29T12:31:54.195Z,988.34
2023-10-29T12:32:54.279Z,988.39
2023-10-29T12:33:54.168Z,988.39
2023-10-29T12:34:54.137Z,988.40
2023-10-29T12:35:54.176Z,988.46
2023-10-29T12:36:54.668Z,988.47
2023-10-29T12:37:54.122Z,988.46
2023-10-29T12:38:54.102Z,988.49
2023-10-29T12:39:54.108Z,988.36
2023-10-29T12:40:54.096Z,988.39
2023-10-29T12:41:54.143Z,988.39
2023-10-29T12:42:54.243Z,988.39
2023-10-29T12:43:54.054Z,988.46
2023-10-29T12:44:54.097Z,988.48
2023-10-29T12:45:54.042Z,988.50
2023-10-29T12:46:54.046Z,988.49
2023-10-29T12:47:54.094Z,988.50
2023-10-29T12:48:53.994Z,988.47
2023-10-29T12:49:54.006Z,988.38
2023-10-29T12:50:54.000Z,988.42
2023-10-29T12:51:53.996Z,988.37
2023-10-29T12:52:53.986Z,988.32
2023-10-29T12:53:54.004Z,988.35
2023-10-29T12:54:53.930Z,988.37
2023-10-29T12:55:53.942Z,988.39
2023-10-29T12:56:54.111Z,988.34
2023-10-29T12:57:53.919Z,988.37
2023-10-29T12:58:53.906Z,988.38
2023-10-29T12:59:53.920Z,988.34
2023-10-29T13:00:56.974Z,988.38
2023-10-29T13:01:54.014Z,988.41
2023-10-29T13:02:53.939Z,988.40
2023-10-29T13:03:53.951Z,988.31
2023-10-29T13:04:53.853Z,988.29
2023-10-29T13:05:53.861Z,988.27
2023-10-29T13:06:53.807Z,988.27
2023-10-29T13:07:53.807Z,988.28
2023-10-29T13:08:53.797Z,988.23
2023-10-29T13:09:53.798Z,988.16
2023-10-29T13:10:53.761Z,988.10
2023-10-29T13:11:53.850Z,988.10
2023-10-29T13:12:53.737Z,988.04
2023-10-29T13:14:08.367Z,988.03
2023-10-29T13:14:53.738Z,988.12
2023-10-29T13:15:53.774Z,988.09
2023-10-29T13:16:53.737Z,988.09
2023-10-29T13:17:53.747Z,988.10
2023-10-29T13:18:53.734Z,988.05
2023-10-29T13:19:53.676Z,988.06
2023-10-29T13:20:53.660Z,988.04
2023-10-29T13:21:53.981Z,988.02
2023-10-29T13:22:53.634Z,987.96
2023-10-29T13:23:53.656Z,987.92
2023-10-29T13:24:53.602Z,987.91
2023-10-29T13:25:53.609Z,987.88
2023-10-29T13:26:53.699Z,987.89
2023-10-29T13:27:53.626Z,987.84
2023-10-29T13:28:53.561Z,987.88
2023-10-29T13:29:53.610Z,987.91
2023-10-29T13:43:42.050Z,987.91
2023-10-29T13:44:43.092Z,987.94
2023-10-29T13:45:43.008Z,988.04
2023-10-29T13:46:43.072Z,988.14
2023-10-29T13:47:43.000Z,988.13
2023-10-29T13:48:43.010Z,988.01
2023-10-29T13:49:42.971Z,987.83
2023-10-29T13:50:43.022Z,987.78
2023-10-29T13:51:42.959Z,987.79
2023-10-29T13:52:42.954Z,987.85
2023-10-29T13:53:42.923Z,987.90
2023-10-29T13:54:42.924Z,987.75
2023-10-29T13:55:42.920Z,987.77
2023-10-29T13:56:42.944Z,987.72
2023-10-29T13:57:42.875Z,987.71
2023-10-29T13:58:42.897Z,987.70
2023-10-29T13:59:42.851Z,987.78
2023-10-29T14:00:42.970Z,987.88
2023-10-29T14:01:42.834Z,987.88
2023-10-29T14:02:43.101Z,987.88
2023-10-29T14:03:42.932Z,987.87
2023-10-29T14:04:42.818Z,987.85
2023-10-29T14:05:42.809Z,987.82
2023-10-29T14:06:42.796Z,987.79
2023-10-29T14:07:42.787Z,987.81
2023-10-29T14:08:42.815Z,987.83
2023-10-29T14:09:42.744Z,987.85
2023-10-29T14:10:42.757Z,987.84
2023-10-29T14:11:42.727Z,987.77
2023-10-29T14:12:42.742Z,987.72
2023-10-29T14:13:44.989Z,987.71
2023-10-29T14:14:42.755Z,987.74
2023-10-29T14:15:42.686Z,987.83
2023-10-29T14:16:42.738Z,987.86
2023-10-29T14:17:42.667Z,987.87
2023-10-29T14:18:42.705Z,987.87
2023-10-29T14:19:42.636Z,987.85
2023-10-29T14:20:42.659Z,987.82
2023-10-29T14:21:42.690Z,987.81
2023-10-29T14:22:42.653Z,987.76
2023-10-29T14:23:42.644Z,987.72
2023-10-29T14:24:42.609Z,987.70
2023-10-29T14:25:42.591Z,987.71
2023-10-29T14:26:42.580Z,987.69
2023-10-29T14:27:42.556Z,987.67
2023-10-29T14:28:42.601Z,987.68
2023-10-29T14:29:42.563Z,987.64
2023-10-29T14:30:42.671Z,987.63
2023-10-29T14:31:42.618Z,987.59
2023-10-29T14:32:42.548Z,987.59
2023-10-29T14:33:42.530Z,987.58
2023-10-29T14:34:42.484Z,987.57
2023-10-29T14:35:42.461Z,987.55
2023-10-29T14:36:42.470Z,987.56
2023-10-29T14:37:42.459Z,987.61
2023-10-29T14:38:42.461Z,987.64
2023-10-29T14:39:42.441Z,987.66
2023-10-29T14:40:42.424Z,987.66
2023-10-29T14:41:42.712Z,987.66
2023-10-29T14:42:44.996Z,987.67
2023-10-29T14:43:42.376Z,987.71
2023-10-29T14:44:42.411Z,987.71
2023-10-29T14:45:42.363Z,987.64
2023-10-29T14:46:42.416Z,987.58
2023-10-29T14:47:42.396Z,987.55
2023-10-29T14:48:42.408Z,987.57
2023-10-29T14:49:42.307Z,987.60
2023-10-29T14:50:42.312Z,987.71
2023-10-29T14:51:42.291Z,987.73
2023-10-29T14:52:42.292Z,987.67
2023-10-29T14:53:42.286Z,987.58
2023-10-29T14:54:42.302Z,987.56
2023-10-29T14:55:42.254Z,987.62
2023-10-29T14:56:42.244Z,987.70
2023-10-29T14:57:42.245Z,987.75
2023-10-29T14:58:42.236Z,987.76
2023-10-29T14:59:42.244Z,987.76
2023-10-29T15:00:42.217Z,987.72
2023-10-29T15:01:42.187Z,987.72
2023-10-29T15:02:42.195Z,987.68
2023-10-29T15:03:42.246Z,987.62
2023-10-29T15:04:42.162Z,987.55
2023-10-29T15:05:42.156Z,987.54
2023-10-29T15:06:42.629Z,987.58
2023-10-29T15:07:42.125Z,987.66
2023-10-29T15:08:42.114Z,987.72
2023-10-29T15:09:42.093Z,987.78
2023-10-29T15:10:42.101Z,987.78
2023-10-29T15:11:42.085Z,987.76
2023-10-29T15:12:42.064Z,987.70
2023-10-29T15:13:46.338Z,987.66
2023-10-29T15:14:42.058Z,987.65
2023-10-29T15:15:42.082Z,987.64
2023-10-29T15:16:42.039Z,987.62
2023-10-29T15:17:42.066Z,987.60
2023-10-29T15:18:42.084Z,987.60
2023-10-29T15:19:42.036Z,987.66
2023-10-29T15:20:54.516Z,987.73
2023-10-29T15:21:41.983Z,987.80
2023-10-29T15:22:41.959Z,987.93
2023-10-29T15:23:41.941Z,988.06
2023-10-29T15:24:41.946Z,988.17
2023-10-29T15:25:41.963Z,988.25
2023-10-29T15:26:41.927Z,988.29
2023-10-29T15:27:41.906Z,988.23
2023-10-29T15:28:41.902Z,988.24
2023-10-29T15:29:41.870Z,988.15
2023-10-29T15:30:41.960Z,988.15
2023-10-29T15:31:41.868Z,988.19
2023-10-29T15:32:41.968Z,988.21
2023-10-29T15:33:41.863Z,988.22
2023-10-29T15:34:41.860Z,988.28
2023-10-29T15:35:41.810Z,988.38
2023-10-29T15:36:41.806Z,988.43
2023-10-29T15:37:41.803Z,988.49
2023-10-29T15:38:41.820Z,988.44
2023-10-29T15:39:41.963Z,988.48
2023-10-29T15:40:41.889Z,988.50
2023-10-29T15:41:41.743Z,988.46
2023-10-29T15:42:41.736Z,988.48
2023-10-29T15:43:41.905Z,988.55
2023-10-29T15:44:41.833Z,988.59
2023-10-29T15:45:41.772Z,988.68
2023-10-29T15:46:41.714Z,988.73
2023-10-29T15:47:41.783Z,988.74
2023-10-29T15:48:41.815Z,988.67
2023-10-29T15:49:41.684Z,988.72
2023-10-29T15:50:41.668Z,988.75
2023-10-29T15:51:41.672Z,988.81
2023-10-29T15:52:41.647Z,988.86
2023-10-29T15:53:41.645Z,988.95
2023-10-29T15:54:41.610Z,988.97
2023-10-29T15:55:41.629Z,988.93
2023-10-29T15:56:42.966Z,988.89
2023-10-29T15:57:41.654Z,988.79
2023-10-29T15:58:41.561Z,988.70
2023-10-29T15:59:41.576Z,988.67
2023-10-29T16:00:41.544Z,988.56
2023-10-29T16:01:41.534Z,988.47
2023-10-29T16:02:41.587Z,988.35
2023-10-29T16:03:41.591Z,988.19
2023-10-29T16:04:41.496Z,988.17
2023-10-29T16:05:41.492Z,988.26
2023-10-29T16:06:41.473Z,988.37
2023-10-29T16:07:41.475Z,988.39
2023-10-29T16:08:41.446Z,988.41
2023-10-29T16:09:41.512Z,988.47
2023-10-29T16:10:41.433Z,988.56
2023-10-29T16:11:41.425Z,988.58
2023-10-29T16:12:41.421Z,988.62
2023-10-29T16:13:41.405Z,988.59
2023-10-29T16:14:41.380Z,988.58
2023-10-29T16:15:41.468Z,988.59
2023-10-29T16:16:41.372Z,988.55
2023-10-29T16:17:41.393Z,988.54
2023-10-29T16:18:41.375Z,988.54
2023-10-29T16:19:41.344Z,988.57
2023-10-29T16:20:41.311Z,988.70
2023-10-29T16:21:41.331Z,988.80
2023-10-29T16:22:41.296Z,988.85
2023-10-29T16:23:41.294Z,988.90
2023-10-29T16:24:41.270Z,988.84
2023-10-29T16:25:41.267Z,988.80
2023-10-29T16:26:41.322Z,988.81
2023-10-29T16:27:41.363Z,988.83
2023-10-29T16:28:41.279Z,988.87
2023-10-29T16:29:41.303Z,988.93
2023-10-29T16:30:41.255Z,988.93
2023-10-29T16:31:41.270Z,988.88
2023-10-29T16:32:41.309Z,988.95
2023-10-29T16:33:41.464Z,988.88
2023-10-29T16:34:41.214Z,988.82
2023-10-29T16:35:41.217Z,988.96
2023-10-29T16:36:41.189Z,989.00
2023-10-29T16:37:41.196Z,988.98
2023-10-29T16:38:41.183Z,988.97
2023-10-29T16:39:41.212Z,988.85
2023-10-29T16:40:41.144Z,989.02
2023-10-29T16:41:41.148Z,988.87
2023-10-29T16:42:41.196Z,989.05
2023-10-29T16:43:41.160Z,988.89
2023-10-29T16:44:41.127Z,989.08
2023-10-29T16:45:41.150Z,989.00
2023-10-29T16:46:41.101Z,989.06
2023-10-29T16:47:41.169Z,989.06
2023-10-29T16:48:41.156Z,989.02
2023-10-29T16:49:41.112Z,989.11
2023-10-29T16:50:52.328Z,989.13
2023-10-29T16:51:41.143Z,989.22
2023-10-29T16:52:41.012Z,989.28
2023-10-29T16:53:41.026Z,989.34
2023-10-29T16:54:41.038Z,989.26
2023-10-29T16:55:41.023Z,989.29
2023-10-29T16:56:40.977Z,989.19
2023-10-29T16:57:40.988Z,989.09
2023-10-29T16:58:40.970Z,989.08
2023-10-29T16:59:41.530Z,989.12
2023-10-29T17:00:40.939Z,989.13
2023-10-29T17:01:40.976Z,989.08
2023-10-29T17:02:40.987Z,989.06
2023-10-29T17:03:41.011Z,989.00
2023-10-29T17:04:40.890Z,988.96
2023-10-29T17:05:40.903Z,988.94
2023-10-29T17:06:40.884Z,988.93
2023-10-29T17:07:40.868Z,988.87
2023-10-29T17:08:40.864Z,988.86
2023-10-29T17:09:40.880Z,988.86
2023-10-29T17:10:40.821Z,988.92
2023-10-29T17:11:40.870Z,988.95
2023-10-29T17:12:40.803Z,988.94
2023-10-29T17:13:40.805Z,988.97
2023-10-29T17:14:40.809Z,988.99
2023-10-29T17:15:40.869Z,988.94
2023-10-29T17:16:40.765Z,988.91